sensor_id;sensor_type;location;lat;lon;timestamp;pressure;altitude;pressure_sealevel;temperature;humidity
14594;BME280;7383;52.354;9.756;2023-10-09T00:01:41;-12745.97;;;16.77;100.00
14594;BME280;7383;52.354;9.756;2023-10-09T00:04:09;-12745.81;;;16.76;100.00
14594;BME280;7383;52.354;9.756;2023-10-09T00:06:36;-12745.56;;;16.74;100.00
14594;BME280;7383;52.354;9.756;2023-10-09T00:09:04;-12744.78;;;16.69;100.00
14594;BME280;7383;52.354;9.756;2023-10-09T00:11:43;-12745.38;;;16.73;100.00
14594;BME280;7383;52.354;9.756;2023-10-09T00:14:11;-12745.63;;;16.75;100.00
14594;BME280;7383;52.354;9.756;2023-10-09T00:16:38;-12745.63;;;16.75;100.00
14594;BME280;7383;52.354;9.756;2023-10-09T00:19:14;-12745.47;;;16.73;100.00
14594;BME280;7383;52.354;9.756;2023-10-09T00:21:43;-12745.03;;;16.71;100.00
14594;BME280;7383;52.354;9.756;2023-10-09T00:24:11;-12745.47;;;16.73;100.00
14594;BME280;7383;52.354;9.756;2023-10-09T00:26:43;-12745.47;;;16.73;100.00
14594;BME280;7383;52.354;9.756;2023-10-09T00:29:12;-12745.19;;;16.72;100.00
14594;BME280;7383;52.354;9.756;2023-10-09T00:31:50;-12743.72;;;16.63;100.00
14594;BME280;7383;52.354;9.756;2023-10-09T00:34:23;-12744.25;;;16.66;100.00
14594;BME280;7383;52.354;9.756;2023-10-09T00:36:51;-12744.25;;;16.66;100.00
14594;BME280;7383;52.354;9.756;2023-10-09T00:39:20;-12743.56;;;16.62;100.00
14594;BME280;7383;52.354;9.756;2023-10-09T00:42:08;-12742.34;;;16.55;100.00
14594;BME280;7383;52.354;9.756;2023-10-09T00:44:37;-12741.81;;;16.52;100.00
14594;BME280;7383;52.354;9.756;2023-10-09T00:47:06;-12740.97;;;16.47;100.00
14594;BME280;7383;52.354;9.756;2023-10-09T00:49:48;-12739.84;;;16.41;100.00
14594;BME280;7383;52.354;9.756;2023-10-09T00:52:16;-12739.31;;;16.38;100.00
14594;BME280;7383;52.354;9.756;2023-10-09T00:54:55;-12738.44;;;16.33;100.00
14594;BME280;7383;52.354;9.756;2023-10-09T00:57:27;-12738.09;;;16.31;100.00
14594;BME280;7383;52.354;9.756;2023-10-09T00:59:58;-12737.66;;;16.28;100.00
14594;BME280;7383;52.354;9.756;2023-10-09T01:02:27;-12737.25;;;16.25;100.00
14594;BME280;7383;52.354;9.756;2023-10-09T01:05:09;-12736.72;;;16.22;100.00
14594;BME280;7383;52.354;9.756;2023-10-09T01:07:46;-12736.81;;;16.23;100.00
14594;BME280;7383;52.354;9.756;2023-10-09T01:10:14;-12736.91;;;16.23;100.00
14594;BME280;7383;52.354;9.756;2023-10-09T01:12:42;-12737.06;;;16.24;100.00
14594;BME280;7383;52.354;9.756;2023-10-09T01:15:12;-12737.84;;;16.29;100.00
14594;BME280;7383;52.354;9.756;2023-10-09T01:18:00;-12738.09;;;16.31;100.00
14594;BME280;7383;52.354;9.756;2023-10-09T01:20:33;-12739.22;;;16.37;100.00
14594;BME280;7383;52.354;9.756;2023-10-09T01:23:09;-12738.97;;;16.36;100.00
14594;BME280;7383;52.354;9.756;2023-10-09T01:25:36;-12738.72;;;16.34;100.00
14594;BME280;7383;52.354;9.756;2023-10-09T01:28:10;-12738.81;;;16.35;100.00
14594;BME280;7383;52.354;9.756;2023-10-09T01:30:41;-12738.53;;;16.33;100.00
14594;BME280;7383;52.354;9.756;2023-10-09T01:33:07;-12738.28;;;16.32;100.00
14594;BME280;7383;52.354;9.756;2023-10-09T01:35:48;-12737.94;;;16.30;100.00
14594;BME280;7383;52.354;9.756;2023-10-09T01:38:18;-12737.25;;;16.25;100.00
14594;BME280;7383;52.354;9.756;2023-10-09T01:40:56;-12736.81;;;16.23;100.00
14594;BME280;7383;52.354;9.756;2023-10-09T01:43:29;-12736.63;;;16.22;100.00
14594;BME280;7383;52.354;9.756;2023-10-09T01:45:59;-12737.31;;;16.26;100.00
14594;BME280;7383;52.354;9.756;2023-10-09T01:48:28;-12736.91;;;16.23;100.00
14594;BME280;7383;52.354;9.756;2023-10-09T01:50:57;-12736.28;;;16.20;100.00
14594;BME280;7383;52.354;9.756;2023-10-09T01:53:28;-12736.28;;;16.20;100.00
14594;BME280;7383;52.354;9.756;2023-10-09T01:55:55;-12735.94;;;16.18;100.00
14594;BME280;7383;52.354;9.756;2023-10-09T01:58:24;-12736.53;;;16.21;100.00
14594;BME280;7383;52.354;9.756;2023-10-09T02:00:53;-12737.31;;;16.26;100.00
14594;BME280;7383;52.354;9.756;2023-10-09T02:03:21;-12737.84;;;16.29;100.00
14594;BME280;7383;52.354;9.756;2023-10-09T02:05:50;-12737.50;;;16.27;100.00
14594;BME280;7383;52.354;9.756;2023-10-09T02:08:18;-12737.84;;;16.29;100.00
14594;BME280;7383;52.354;9.756;2023-10-09T02:10:49;-12737.94;;;16.30;100.00
14594;BME280;7383;52.354;9.756;2023-10-09T02:13:22;-12738.44;;;16.33;100.00
14594;BME280;7383;52.354;9.756;2023-10-09T02:15:56;-12738.09;;;16.31;100.00
14594;BME280;7383;52.354;9.756;2023-10-09T02:18:38;-12737.59;;;16.28;100.00
14594;BME280;7383;52.354;9.756;2023-10-09T02:21:18;-12737.50;;;16.27;100.00
14594;BME280;7383;52.354;9.756;2023-10-09T02:23:54;-12737.31;;;16.26;100.00
14594;BME280;7383;52.354;9.756;2023-10-09T02:26:23;-12737.41;;;16.27;100.00
14594;BME280;7383;52.354;9.756;2023-10-09T02:28:52;-12737.75;;;16.29;100.00
14594;BME280;7383;52.354;9.756;2023-10-09T02:31:23;-12737.50;;;16.27;100.00
14594;BME280;7383;52.354;9.756;2023-10-09T02:33:53;-12736.72;;;16.22;100.00
14594;BME280;7383;52.354;9.756;2023-10-09T02:36:21;-12736.72;;;16.22;100.00
14594;BME280;7383;52.354;9.756;2023-10-09T02:38:47;-12736.28;;;16.20;100.00
14594;BME280;7383;52.354;9.756;2023-10-09T02:41:18;-12736.13;;;16.19;100.00
14594;BME280;7383;52.354;9.756;2023-10-09T02:43:49;-12736.03;;;16.18;100.00
14594;BME280;7383;52.354;9.756;2023-10-09T02:46:18;-12736.38;;;16.20;100.00
14594;BME280;7383;52.354;9.756;2023-10-09T02:48:47;-12736.47;;;16.21;100.00
14594;BME280;7383;52.354;9.756;2023-10-09T02:51:17;-12737.31;;;16.26;100.00
14594;BME280;7383;52.354;9.756;2023-10-09T02:53:59;-12737.41;;;16.27;100.00
14594;BME280;7383;52.354;9.756;2023-10-09T02:56:34;-12737.66;;;16.28;100.00
14594;BME280;7383;52.354;9.756;2023-10-09T02:59:07;-12737.94;;;16.30;100.00
14594;BME280;7383;52.354;9.756;2023-10-09T03:01:38;-12738.72;;;16.34;100.00
14594;BME280;7383;52.354;9.756;2023-10-09T03:04:06;-12738.97;;;16.36;100.00
14594;BME280;7383;52.354;9.756;2023-10-09T03:06:36;-12739.50;;;16.39;100.00
14594;BME280;7383;52.354;9.756;2023-10-09T03:09:09;-12739.41;;;16.38;100.00
14594;BME280;7383;52.354;9.756;2023-10-09T03:11:44;-12738.97;;;16.36;100.00
14594;BME280;7383;52.354;9.756;2023-10-09T03:14:13;-12738.72;;;16.34;100.00
14594;BME280;7383;52.354;9.756;2023-10-09T03:16:39;-12738.44;;;16.33;100.00
14594;BME280;7383;52.354;9.756;2023-10-09T03:19:06;-12738.53;;;16.33;100.00
14594;BME280;7383;52.354;9.756;2023-10-09T03:21:32;-12738.44;;;16.33;100.00
14594;BME280;7383;52.354;9.756;2023-10-09T03:23:59;-12738.81;;;16.35;100.00
14594;BME280;7383;52.354;9.756;2023-10-09T03:26:29;-12738.09;;;16.31;100.00
14594;BME280;7383;52.354;9.756;2023-10-09T03:28:56;-12738.38;;;16.32;100.00
14594;BME280;7383;52.354;9.756;2023-10-09T03:31:28;-12737.94;;;16.30;100.00
14594;BME280;7383;52.354;9.756;2023-10-09T03:33:56;-12737.75;;;16.29;100.00
14594;BME280;7383;52.354;9.756;2023-10-09T03:36:23;-12737.59;;;16.28;100.00
14594;BME280;7383;52.354;9.756;2023-10-09T03:38:52;-12737.25;;;16.25;100.00
14594;BME280;7383;52.354;9.756;2023-10-09T03:41:20;-12736.72;;;16.22;100.00
14594;BME280;7383;52.354;9.756;2023-10-09T03:43:47;-12736.38;;;16.20;100.00
14594;BME280;7383;52.354;9.756;2023-10-09T03:46:14;-12736.47;;;16.21;100.00
14594;BME280;7383;52.354;9.756;2023-10-09T03:48:47;-12735.94;;;16.18;100.00
14594;BME280;7383;52.354;9.756;2023-10-09T03:51:14;-12735.59;;;16.16;100.00
14594;BME280;7383;52.354;9.756;2023-10-09T03:53:46;-12735.06;;;16.13;100.00
14594;BME280;7383;52.354;9.756;2023-10-09T03:56:13;-12735.06;;;16.13;100.00
14594;BME280;7383;52.354;9.756;2023-10-09T03:58:42;-12735.00;;;16.12;100.00
14594;BME280;7383;52.354;9.756;2023-10-09T04:01:10;-12735.06;;;16.13;100.00
14594;BME280;7383;52.354;9.756;2023-10-09T04:03:43;-12735.25;;;16.14;100.00
14594;BME280;7383;52.354;9.756;2023-10-09T04:06:11;-12735.59;;;16.16;100.00
14594;BME280;7383;52.354;9.756;2023-10-09T04:08:38;-12736.13;;;16.19;100.00
14594;BME280;7383;52.354;9.756;2023-10-09T04:11:12;-12736.19;;;16.19;100.00
14594;BME280;7383;52.354;9.756;2023-10-09T04:13:43;-12736.53;;;16.21;100.00
14594;BME280;7383;52.354;9.756;2023-10-09T04:16:11;-12737.50;;;16.27;100.00
14594;BME280;7383;52.354;9.756;2023-10-09T04:18:58;-12738.09;;;16.31;100.00
14594;BME280;7383;52.354;9.756;2023-10-09T04:21:32;-12737.25;;;16.25;100.00
14594;BME280;7383;52.354;9.756;2023-10-09T04:24:02;-12737.25;;;16.25;100.00
14594;BME280;7383;52.354;9.756;2023-10-09T04:26:46;-12737.31;;;16.26;100.00
14594;BME280;7383;52.354;9.756;2023-10-09T04:29:14;-12737.50;;;16.27;100.00
14594;BME280;7383;52.354;9.756;2023-10-09T04:31:46;-12737.50;;;16.27;100.00
14594;BME280;7383;52.354;9.756;2023-10-09T04:34:17;-12737.50;;;16.27;100.00
14594;BME280;7383;52.354;9.756;2023-10-09T04:36:55;-12737.59;;;16.28;100.00
14594;BME280;7383;52.354;9.756;2023-10-09T04:39:26;-12738.03;;;16.30;100.00
14594;BME280;7383;52.354;9.756;2023-10-09T04:42:02;-12738.28;;;16.32;100.00
14594;BME280;7383;52.354;9.756;2023-10-09T04:44:45;-12738.28;;;16.32;100.00
14594;BME280;7383;52.354;9.756;2023-10-09T04:47:43;-12738.28;;;16.32;100.00
14594;BME280;7383;52.354;9.756;2023-10-09T04:50:23;-12738.81;;;16.35;100.00
14594;BME280;7383;52.354;9.756;2023-10-09T04:53:09;-12739.06;;;16.36;100.00
14594;BME280;7383;52.354;9.756;2023-10-09T04:55:48;-12739.06;;;16.36;100.00
14594;BME280;7383;52.354;9.756;2023-10-09T04:58:20;-12739.41;;;16.38;100.00
14594;BME280;7383;52.354;9.756;2023-10-09T05:00:51;-12739.22;;;16.37;100.00
14594;BME280;7383;52.354;9.756;2023-10-09T05:03:38;-12739.66;;;16.40;100.00
14594;BME280;7383;52.354;9.756;2023-10-09T05:06:09;-12740.09;;;16.42;100.00
14594;BME280;7383;52.354;9.756;2023-10-09T05:09:10;-12740.69;;;16.46;100.00
14594;BME280;7383;52.354;9.756;2023-10-09T05:11:41;-12740.97;;;16.47;100.00
14594;BME280;7383;52.354;9.756;2023-10-09T05:14:34;-12741.47;;;16.50;100.00
14594;BME280;7383;52.354;9.756;2023-10-09T05:17:29;-12741.66;;;16.51;100.00
14594;BME280;7383;52.354;9.756;2023-10-09T05:20:18;-12741.91;;;16.53;100.00
14594;BME280;7383;52.354;9.756;2023-10-09T05:23:02;-12742.16;;;16.54;100.00
14594;BME280;7383;52.354;9.756;2023-10-09T05:25:57;-12742.09;;;16.54;100.00
14594;BME280;7383;52.354;9.756;2023-10-09T05:29:18;-12742.69;;;16.57;100.00
14594;BME280;7383;52.354;9.756;2023-10-09T05:32:02;-12742.34;;;16.55;100.00
14594;BME280;7383;52.354;9.756;2023-10-09T05:34:45;-12742.09;;;16.54;100.00
14594;BME280;7383;52.354;9.756;2023-10-09T05:37:26;-12742.09;;;16.54;100.00
14594;BME280;7383;52.354;9.756;2023-10-09T05:40:00;-12742.44;;;16.56;100.00
14594;BME280;7383;52.354;9.756;2023-10-09T05:42:49;-12742.53;;;16.56;100.00
14594;BME280;7383;52.354;9.756;2023-10-09T05:45:48;-12742.34;;;16.55;100.00
14594;BME280;7383;52.354;9.756;2023-10-09T05:48:41;-12742.53;;;16.56;100.00
14594;BME280;7383;52.354;9.756;2023-10-09T05:51:38;-12742.16;;;16.54;100.00
14594;BME280;7383;52.354;9.756;2023-10-09T05:54:18;-12742.59;;;16.57;100.00
14594;BME280;7383;52.354;9.756;2023-10-09T06:00:22;-12742.78;;;16.58;100.00
14594;BME280;7383;52.354;9.756;2023-10-09T06:03:06;-12742.25;;;16.55;100.00
14594;BME280;7383;52.354;9.756;2023-10-09T06:06:04;-12742.09;;;16.54;100.00
14594;BME280;7383;52.354;9.756;2023-10-09T06:08:32;-12742.09;;;16.54;100.00
14594;BME280;7383;52.354;9.756;2023-10-09T06:11:36;-12742.09;;;16.54;100.00
14594;BME280;7383;52.354;9.756;2023-10-09T06:14:04;-12742.09;;;16.54;100.00
14594;BME280;7383;52.354;9.756;2023-10-09T06:16:40;-12742.25;;;16.55;100.00
14594;BME280;7383;52.354;9.756;2023-10-09T06:19:13;-12742.69;;;16.57;100.00
14594;BME280;7383;52.354;9.756;2023-10-09T06:21:52;-12743.13;;;16.60;100.00
14594;BME280;7383;52.354;9.756;2023-10-09T06:24:38;-12742.78;;;16.58;100.00
14594;BME280;7383;52.354;9.756;2023-10-09T06:27:07;-12743.13;;;16.60;100.00
14594;BME280;7383;52.354;9.756;2023-10-09T06:29:40;-12743.13;;;16.60;100.00
14594;BME280;7383;52.354;9.756;2023-10-09T06:32:18;-12743.13;;;16.60;100.00
14594;BME280;7383;52.354;9.756;2023-10-09T06:35:01;-12743.66;;;16.63;100.00
14594;BME280;7383;52.354;9.756;2023-10-09T06:37:44;-12744.00;;;16.65;100.00
14594;BME280;7383;52.354;9.756;2023-10-09T06:40:30;-12744.16;;;16.66;100.00
14594;BME280;7383;52.354;9.756;2023-10-09T06:43:14;-12744.59;;;16.68;100.00
14594;BME280;7383;52.354;9.756;2023-10-09T06:45:42;-12744.44;;;16.67;100.00
14594;BME280;7383;52.354;9.756;2023-10-09T06:48:21;-12744.44;;;16.67;100.00
14594;BME280;7383;52.354;9.756;2023-10-09T06:51:07;-12744.69;;;16.69;100.00
14594;BME280;7383;52.354;9.756;2023-10-09T06:53:38;-12744.34;;;16.67;100.00
14594;BME280;7383;52.354;9.756;2023-10-09T06:56:24;-12744.69;;;16.69;100.00
14594;BME280;7383;52.354;9.756;2023-10-09T06:59:12;-12744.84;;;16.70;100.00
14594;BME280;7383;52.354;9.756;2023-10-09T07:01:47;-12744.94;;;16.70;100.00
14594;BME280;7383;52.354;9.756;2023-10-09T07:04:35;-12745.03;;;16.71;100.00
14594;BME280;7383;52.354;9.756;2023-10-09T07:07:13;-12745.28;;;16.72;100.00
14594;BME280;7383;52.354;9.756;2023-10-09T07:09:44;-12745.81;;;16.76;100.00
14594;BME280;7383;52.354;9.756;2023-10-09T07:12:32;-12745.19;;;16.72;100.00
14594;BME280;7383;52.354;9.756;2023-10-09T07:15:00;-12745.72;;;16.75;100.00
14594;BME280;7383;52.354;9.756;2023-10-09T07:17:50;-12746.06;;;16.77;100.00
14594;BME280;7383;52.354;9.756;2023-10-09T07:20:19;-12745.38;;;16.73;100.00
14594;BME280;7383;52.354;9.756;2023-10-09T07:22:59;-12745.47;;;16.73;100.00
14594;BME280;7383;52.354;9.756;2023-10-09T07:25:39;-12745.56;;;16.74;100.00
14594;BME280;7383;52.354;9.756;2023-10-09T07:28:21;-12745.03;;;16.71;100.00
14594;BME280;7383;52.354;9.756;2023-10-09T07:31:08;-12745.19;;;16.72;100.00
14594;BME280;7383;52.354;9.756;2023-10-09T07:33:50;-12745.19;;;16.72;100.00
14594;BME280;7383;52.354;9.756;2023-10-09T07:36:47;-12745.03;;;16.71;100.00
14594;BME280;7383;52.354;9.756;2023-10-09T07:39:20;-12744.84;;;16.70;100.00
14594;BME280;7383;52.354;9.756;2023-10-09T07:41:48;-12745.28;;;16.72;100.00
14594;BME280;7383;52.354;9.756;2023-10-09T07:44:31;-12745.63;;;16.75;100.00
14594;BME280;7383;52.354;9.756;2023-10-09T07:47:04;-12745.63;;;16.75;100.00
14594;BME280;7383;52.354;9.756;2023-10-09T07:49:54;-12745.72;;;16.75;100.00
14594;BME280;7383;52.354;9.756;2023-10-09T07:52:25;-12745.97;;;16.77;100.00
14594;BME280;7383;52.354;9.756;2023-10-09T07:54:52;-12746.25;;;16.78;100.00
14594;BME280;7383;52.354;9.756;2023-10-09T07:57:29;-12746.50;;;16.80;100.00
14594;BME280;7383;52.354;9.756;2023-10-09T08:00:04;-12745.91;;;16.76;100.00
14594;BME280;7383;52.354;9.756;2023-10-09T08:02:57;-12745.56;;;16.74;100.00
14594;BME280;7383;52.354;9.756;2023-10-09T08:05:25;-12745.97;;;16.77;100.00
14594;BME280;7383;52.354;9.756;2023-10-09T08:08:00;-12745.81;;;16.76;100.00
14594;BME280;7383;52.354;9.756;2023-10-09T08:10:51;-12746.25;;;16.78;100.00
14594;BME280;7383;52.354;9.756;2023-10-09T08:13:35;-12746.59;;;16.80;100.00
14594;BME280;7383;52.354;9.756;2023-10-09T08:16:22;-12746.50;;;16.80;100.00
14594;BME280;7383;52.354;9.756;2023-10-09T08:18:49;-12746.41;;;16.79;100.00
14594;BME280;7383;52.354;9.756;2023-10-09T08:21:16;-12746.66;;;16.81;100.00
14594;BME280;7383;52.354;9.756;2023-10-09T08:24:08;-12747.00;;;16.83;100.00
14594;BME280;7383;52.354;9.756;2023-10-09T08:26:56;-12747.72;;;16.87;100.00
14594;BME280;7383;52.354;9.756;2023-10-09T08:29:36;-12747.97;;;16.88;100.00
14594;BME280;7383;52.354;9.756;2023-10-09T08:32:03;-12749.19;;;16.95;100.00
14594;BME280;7383;52.354;9.756;2023-10-09T08:34:43;-12750.13;;;17.01;100.00
14594;BME280;7383;52.354;9.756;2023-10-09T08:37:18;-12750.66;;;17.04;100.00
14594;BME280;7383;52.354;9.756;2023-10-09T08:39:51;-12750.72;;;17.04;100.00
14594;BME280;7383;52.354;9.756;2023-10-09T08:42:19;-12750.81;;;17.05;100.00
14594;BME280;7383;52.354;9.756;2023-10-09T08:44:49;-12751.09;;;17.06;100.00
14594;BME280;7383;52.354;9.756;2023-10-09T08:47:15;-12751.25;;;17.07;100.00
14594;BME280;7383;52.354;9.756;2023-10-09T08:49:42;-12751.84;;;17.11;100.00
14594;BME280;7383;52.354;9.756;2023-10-09T08:52:08;-12752.63;;;17.15;100.00
14594;BME280;7383;52.354;9.756;2023-10-09T08:54:36;-12753.31;;;17.19;100.00
14594;BME280;7383;52.354;9.756;2023-10-09T08:57:04;-12754.19;;;17.25;100.00
14594;BME280;7383;52.354;9.756;2023-10-09T08:59:40;-12754.78;;;17.28;100.00
14594;BME280;7383;52.354;9.756;2023-10-09T09:02:08;-12755.06;;;17.30;100.00
14594;BME280;7383;52.354;9.756;2023-10-09T09:04:37;-12755.50;;;17.32;100.00
14594;BME280;7383;52.354;9.756;2023-10-09T09:07:04;-12756.34;;;17.37;100.00
14594;BME280;7383;52.354;9.756;2023-10-09T09:09:32;-12756.09;;;17.36;100.00
14594;BME280;7383;52.354;9.756;2023-10-09T09:11:59;-12756.19;;;17.36;100.00
14594;BME280;7383;52.354;9.756;2023-10-09T09:14:37;-12756.78;;;17.40;100.00
14594;BME280;7383;52.354;9.756;2023-10-09T09:17:05;-12756.69;;;17.39;100.00
14594;BME280;7383;52.354;9.756;2023-10-09T09:19:36;-12757.22;;;17.42;100.00
14594;BME280;7383;52.354;9.756;2023-10-09T09:22:03;-12757.81;;;17.46;100.00
14594;BME280;7383;52.354;9.756;2023-10-09T09:24:38;-12758.00;;;17.47;100.00
14594;BME280;7383;52.354;9.756;2023-10-09T09:27:10;-12758.06;;;17.47;100.00
14594;BME280;7383;52.354;9.756;2023-10-09T09:29:45;-12758.50;;;17.50;100.00
14594;BME280;7383;52.354;9.756;2023-10-09T09:32:26;-12758.94;;;17.52;100.00
14594;BME280;7383;52.354;9.756;2023-10-09T09:34:56;-12758.41;;;17.49;100.00
14594;BME280;7383;52.354;9.756;2023-10-09T09:37:27;-12758.16;;;17.48;100.00
14594;BME280;7383;52.354;9.756;2023-10-09T09:39:57;-12757.91;;;17.46;100.00
14594;BME280;7383;52.354;9.756;2023-10-09T09:42:28;-12757.81;;;17.46;100.00
14594;BME280;7383;52.354;9.756;2023-10-09T09:45:00;-12757.81;;;17.46;100.00
14594;BME280;7383;52.354;9.756;2023-10-09T09:47:29;-12757.47;;;17.44;100.00
14594;BME280;7383;52.354;9.756;2023-10-09T09:49:58;-12757.81;;;17.46;100.00
14594;BME280;7383;52.354;9.756;2023-10-09T09:52:37;-12758.00;;;17.47;100.00
14594;BME280;7383;52.354;9.756;2023-10-09T09:55:06;-12757.47;;;17.44;100.00
14594;BME280;7383;52.354;9.756;2023-10-09T09:57:40;-12757.91;;;17.46;100.00
14594;BME280;7383;52.354;9.756;2023-10-09T10:00:11;-12758.16;;;17.48;100.00
14594;BME280;7383;52.354;9.756;2023-10-09T10:02:54;-12758.34;;;17.49;100.00
14594;BME280;7383;52.354;9.756;2023-10-09T10:05:24;-12758.50;;;17.50;100.00
14594;BME280;7383;52.354;9.756;2023-10-09T10:07:56;-12758.59;;;17.50;100.00
14594;BME280;7383;52.354;9.756;2023-10-09T10:10:37;-12758.41;;;17.49;100.00
14594;BME280;7383;52.354;9.756;2023-10-09T10:13:13;-12758.34;;;17.49;100.00
14594;BME280;7383;52.354;9.756;2023-10-09T10:16:00;-12758.41;;;17.49;100.00
14594;BME280;7383;52.354;9.756;2023-10-09T10:18:53;-12757.91;;;17.46;100.00
14594;BME280;7383;52.354;9.756;2023-10-09T10:21:25;-12757.56;;;17.44;100.00
14594;BME280;7383;52.354;9.756;2023-10-09T10:24:41;-12757.47;;;17.44;100.00
14594;BME280;7383;52.354;9.756;2023-10-09T10:27:25;-12757.31;;;17.43;100.00
14594;BME280;7383;52.354;9.756;2023-10-09T10:30:26;-12757.31;;;17.43;100.00
14594;BME280;7383;52.354;9.756;2023-10-09T10:32:59;-12756.44;;;17.38;100.00
14594;BME280;7383;52.354;9.756;2023-10-09T10:35:34;-12756.19;;;17.36;100.00
14594;BME280;7383;52.354;9.756;2023-10-09T10:38:22;-12756.19;;;17.36;100.00
14594;BME280;7383;52.354;9.756;2023-10-09T10:40:49;-12756.34;;;17.37;100.00
14594;BME280;7383;52.354;9.756;2023-10-09T10:43:23;-12756.53;;;17.38;100.00
14594;BME280;7383;52.354;9.756;2023-10-09T10:46:01;-12756.53;;;17.38;100.00
14594;BME280;7383;52.354;9.756;2023-10-09T10:48:34;-12755.66;;;17.33;100.00
14594;BME280;7383;52.354;9.756;2023-10-09T10:51:03;-12755.91;;;17.35;100.00
14594;BME280;7383;52.354;9.756;2023-10-09T10:53:31;-12755.06;;;17.30;100.00
14594;BME280;7383;52.354;9.756;2023-10-09T10:56:13;-12754.88;;;17.29;100.00
14594;BME280;7383;52.354;9.756;2023-10-09T10:58:53;-12755.31;;;17.31;100.00
14594;BME280;7383;52.354;9.756;2023-10-09T11:01:37;-12755.06;;;17.30;100.00
14594;BME280;7383;52.354;9.756;2023-10-09T11:04:21;-12755.22;;;17.31;100.00
14594;BME280;7383;52.354;9.756;2023-10-09T11:07:06;-12755.84;;;17.34;100.00
14594;BME280;7383;52.354;9.756;2023-10-09T11:09:45;-12756.59;;;17.39;100.00
14594;BME280;7383;52.354;9.756;2023-10-09T11:12:42;-12757.81;;;17.46;100.00
14594;BME280;7383;52.354;9.756;2023-10-09T11:15:11;-12758.06;;;17.47;100.00
14594;BME280;7383;52.354;9.756;2023-10-09T11:17:59;-12758.34;;;17.49;100.00
14594;BME280;7383;52.354;9.756;2023-10-09T11:20:32;-12758.41;;;17.49;100.00
14594;BME280;7383;52.354;9.756;2023-10-09T11:23:00;-12758.06;;;17.47;100.00
14594;BME280;7383;52.354;9.756;2023-10-09T11:25:42;-12758.84;;;17.52;100.00
14594;BME280;7383;52.354;9.756;2023-10-09T11:28:17;-12759.28;;;17.54;100.00
14594;BME280;7383;52.354;9.756;2023-10-09T11:30:55;-12759.91;;;17.58;100.00
14594;BME280;7383;52.354;9.756;2023-10-09T11:33:42;-12759.81;;;17.57;100.00
14594;BME280;7383;52.354;9.756;2023-10-09T11:36:10;-12759.72;;;17.57;100.00
14594;BME280;7383;52.354;9.756;2023-10-09T11:38:37;-12759.72;;;17.57;100.00
14594;BME280;7383;52.354;9.756;2023-10-09T11:41:12;-12759.47;;;17.55;100.00
14594;BME280;7383;52.354;9.756;2023-10-09T11:43:48;-12758.94;;;17.52;100.00
14594;BME280;7383;52.354;9.756;2023-10-09T11:46:18;-12758.75;;;17.51;100.00
14594;BME280;7383;52.354;9.756;2023-10-09T11:49:05;-12758.75;;;17.51;100.00
14594;BME280;7383;52.354;9.756;2023-10-09T11:52:06;-12758.41;;;17.49;100.00
14594;BME280;7383;52.354;9.756;2023-10-09T11:54:50;-12758.00;;;17.47;100.00
14594;BME280;7383;52.354;9.756;2023-10-09T11:57:16;-12757.66;;;17.45;100.00
14594;BME280;7383;52.354;9.756;2023-10-09T11:59:43;-12757.38;;;17.43;100.00
14594;BME280;7383;52.354;9.756;2023-10-09T12:02:10;-12757.47;;;17.44;100.00
14594;BME280;7383;52.354;9.756;2023-10-09T12:04:38;-12757.03;;;17.41;100.00
14594;BME280;7383;52.354;9.756;2023-10-09T12:07:08;-12757.03;;;17.41;100.00
14594;BME280;7383;52.354;9.756;2023-10-09T12:09:35;-12757.22;;;17.42;100.00
14594;BME280;7383;52.354;9.756;2023-10-09T12:12:04;-12757.31;;;17.43;100.00
14594;BME280;7383;52.354;9.756;2023-10-09T12:14:32;-12757.66;;;17.45;100.00
14594;BME280;7383;52.354;9.756;2023-10-09T12:17:00;-12757.66;;;17.45;100.00
14594;BME280;7383;52.354;9.756;2023-10-09T12:19:31;-12757.91;;;17.46;100.00
14594;BME280;7383;52.354;9.756;2023-10-09T12:21:58;-12758.00;;;17.47;100.00
14594;BME280;7383;52.354;9.756;2023-10-09T12:24:27;-12757.22;;;17.42;100.00
14594;BME280;7383;52.354;9.756;2023-10-09T12:26:55;-12757.31;;;17.43;100.00
14594;BME280;7383;52.354;9.756;2023-10-09T12:29:22;-12757.66;;;17.45;100.00
14594;BME280;7383;52.354;9.756;2023-10-09T12:31:49;-12757.91;;;17.46;100.00
14594;BME280;7383;52.354;9.756;2023-10-09T12:34:23;-12757.72;;;17.45;100.00
14594;BME280;7383;52.354;9.756;2023-10-09T12:36:52;-12758.00;;;17.47;100.00
14594;BME280;7383;52.354;9.756;2023-10-09T12:39:19;-12758.16;;;17.48;100.00
14594;BME280;7383;52.354;9.756;2023-10-09T12:41:48;-12757.91;;;17.46;100.00
14594;BME280;7383;52.354;9.756;2023-10-09T12:44:18;-12758.16;;;17.48;100.00
14594;BME280;7383;52.354;9.756;2023-10-09T12:46:45;-12758.34;;;17.49;100.00
14594;BME280;7383;52.354;9.756;2023-10-09T12:49:21;-12758.50;;;17.50;100.00
14594;BME280;7383;52.354;9.756;2023-10-09T12:51:50;-12758.69;;;17.51;100.00
14594;BME280;7383;52.354;9.756;2023-10-09T12:54:19;-12758.41;;;17.49;100.00
14594;BME280;7383;52.354;9.756;2023-10-09T12:56:53;-12758.69;;;17.51;100.00
14594;BME280;7383;52.354;9.756;2023-10-09T12:59:21;-12760.16;;;17.59;100.00
14594;BME280;7383;52.354;9.756;2023-10-09T13:01:49;-12762.06;;;17.70;100.00
14594;BME280;7383;52.354;9.756;2023-10-09T13:04:23;-12762.81;;;17.75;100.00
14594;BME280;7383;52.354;9.756;2023-10-09T13:06:57;-12763.53;;;17.79;100.00
14594;BME280;7383;52.354;9.756;2023-10-09T13:09:28;-12764.38;;;17.84;100.00
14594;BME280;7383;52.354;9.756;2023-10-09T13:12:02;-12764.28;;;17.84;100.00
14594;BME280;7383;52.354;9.756;2023-10-09T13:14:29;-12764.47;;;17.85;100.00
14594;BME280;7383;52.354;9.756;2023-10-09T13:17:00;-12764.38;;;17.84;100.00
14594;BME280;7383;52.354;9.756;2023-10-09T13:19:33;-12764.22;;;17.83;100.00
14594;BME280;7383;52.354;9.756;2023-10-09T13:22:00;-12764.47;;;17.85;100.00
14594;BME280;7383;52.354;9.756;2023-10-09T13:24:28;-12763.88;;;17.81;100.00
14594;BME280;7383;52.354;9.756;2023-10-09T13:26:56;-12764.47;;;17.85;100.00
14594;BME280;7383;52.354;9.756;2023-10-09T13:29:25;-12764.81;;;17.87;100.00
14594;BME280;7383;52.354;9.756;2023-10-09T13:31:52;-12765.94;;;17.93;100.00
14594;BME280;7383;52.354;9.756;2023-10-09T13:34:23;-12765.94;;;17.93;100.00